Terminal Aerodrome Forecast
Issued by NWS

Home | Current Version | Previous Version | Text Only | Print | Product List | Glossary On
Versions: 1 2 3 4 5 6 7 8 9 10 11 12 13 14 15 16 17 18 19 20
000
FTUS45 KABQ 191100
TAFFMN
TAF
KFMN 191140Z 1912/2012 VRB06KT P6SM SKC
     FM191900 27016G25KT P6SM FEW090 SCT180
     FM200130 30006KT P6SM FEW090
     FM200800 08005KT P6SM FEW120 SCT200=

USA.gov is the U.S. government's official web portal to all federal, state and local government web resources and services.